Terminal Aerodrome Forecast
Issued by NWS St Louis, MO

Home | Current Version | Previous Version | Text Only | Print | Product List | Glossary On
Versions: 1 2 3 4 5 6 7 8 9 10 11 12 13 14
154
FTUS43 KLSX 240520
TAFCOU
TAF
KCOU 240520Z 2406/2506 06006KT P6SM SCT050
     FM241000 35005KT P6SM BKN015
     FM241400 36010KT P6SM SCT035=

USA.gov is the U.S. government's official web portal to all federal, state and local government web resources and services.